Thunder radar more information blitzortung!


Radar de pluja more information rain snow radar


Visita la nostra xarxa de llocs de meteo:

Template documentation
and downloads

And another site



Extreme low temperature From: 13-12-2017 09:00 Until: 09:59 warning for: Extreme low temperature Level: Yellow info button

Pagina Historial Weather Underground text

Diari Resum Setembre 22, 2017 Unitats:  Imperial    Mètric   Tant
« Previous Dia
SegĂźent Dia »
Diari Setmana Mensual Anual Personalitzada
  Maxima: Minima: Media:
Temperatura: 75.4 °F 60.4 °F 66.6 °F
Punt de rosada: 64 °F 56.7 °F 59 °F
Humitat: 92 % 62 % 77 %
Wind Speed: 6.9 mph 0 mph 2.1 mph
RĂ fegues de vent: 6.9 mph - -
Vent:- - SE
Pression baro: 30.2 in 30.1 in -
Precipitacions: 0.16 in    
Historical Graphs
 
 
Dades de taula per Setembre 22, 2017
Temps Temperatura Punt de rosada Pression baro Vent Wind Speed RĂ fegues de vent Humitat Rainfall Rate (Hourly)
00:00 66.2 °F 60.3 °F 30.1 in Calm     81 % 0 in
00:05 66.2 °F 60.3 °F 30.1 in Calm     81 % 0 in
00:10 66 °F 60.4 °F 30.1 in Calm     82 % 0 in
00:20 61.9 °F 58.6 °F 30.1 in Calm     89 % 0 in
00:30 61.9 °F 58.6 °F 30.1 in Calm     89 % 0 in
00:40 61.7 °F 58.5 °F 30.1 in Calm     89 % 0 in
00:50 61.3 °F 58.1 °F 30.1 in SE 1 mph 2 mph 89 % 0 in
01:00 61 °F 57.7 °F 30.1 in Calm   2 mph 89 % 0 in
01:10 61.2 °F 57.9 °F 30.1 in SW 1 mph 2 mph 89 % 0 in
01:20 61.2 °F 58.3 °F 30.1 in WSW 2 mph 2 mph 90 % 0 in
01:30 61 °F 57.9 °F 30.1 in Calm   2 mph 90 % 0 in
01:40 60.8 °F 57.6 °F 30.1 in NNW 1 mph 1 mph 89 % 0 in
01:50 60.6 °F 57.4 °F 30.1 in Calm   2 mph 89 % 0 in
02:00 60.6 °F 57.4 °F 30.1 in WSW 2 mph 3 mph 89 % 0 in
02:10 60.4 °F 57.6 °F 30.1 in SW 1 mph 3 mph 90 % 0 in
02:20 60.8 °F 57.7 °F 30.1 in SW 1 mph 2 mph 90 % 0 in
02:30 60.8 °F 58.3 °F 30.1 in Calm   1 mph 91 % 0 in
02:40 61 °F 58.3 °F 30.1 in WSW 1 mph 2 mph 91 % 0 in
02:50 61.2 °F 58.5 °F 30.1 in WSW 1 mph 2 mph 91 % 0 in
03:00 61.2 °F 58.5 °F 30.1 in Calm     91 % 0 in
03:10 61.3 °F 59 °F 30.1 in Calm     92 % 0 in
03:20 61.5 °F 59.2 °F 30.1 in Calm   1 mph 92 % 0 in
03:30 61.9 °F 59.5 °F 30.1 in Calm   1 mph 92 % 0 in
03:40 62.2 °F 59.9 °F 30.2 in Calm     92 % 0 in
03:50 63.1 °F 60.8 °F 30.2 in Calm     92 % 0 in
04:00 62.8 °F 60.1 °F 30.2 in NNW 1 mph 2 mph 91 % 0 in
04:10 63 °F 60.3 °F 30.2 in Calm     91 % 0 in
04:20 64 °F 61.3 °F 30.2 in WNW 1 mph   91 % 0 in
04:30 64.9 °F 61.9 °F 30.2 in Calm   1 mph 90 % 0 in
04:40 66 °F 62.4 °F 30.2 in NE 2 mph 3 mph 88 % 0 in
04:50 66.2 °F 61.5 °F 30.2 in NE 2 mph 3 mph 85 % 0 in
05:00 67.5 °F 62.4 °F 30.2 in NE 1 mph 2 mph 84 % 0 in
05:10 67.8 °F 62.1 °F 30.2 in NE 1 mph 2 mph 82 % 0 in
05:20 67.8 °F 62.1 °F 30.2 in NE 2 mph 3 mph 82 % 0 in
05:30 68 °F 61.5 °F 30.2 in NE 2 mph 3 mph 80 % 0 in
05:40 68 °F 61.5 °F 30.2 in NE 2 mph 3 mph 80 % 0 in
05:50 68.4 °F 61.9 °F 30.2 in NE 3 mph 3 mph 80 % 0 in
06:00 69.8 °F 62.6 °F 30.2 in NNE 2 mph 3 mph 78 % 0 in
09:40 69.4 °F 60.4 °F 30.2 in SW 2 mph 3 mph 73 % 0 in
09:50 68.2 °F 59.5 °F 30.2 in SW 3 mph 3 mph 74 % 0 in
10:00 66.7 °F 58.8 °F 30.2 in WSW 3 mph 5 mph 76 % 0 in
10:10 65.5 °F 58.5 °F 30.2 in WSW 1 mph 3 mph 78 % 0 in
10:20 64.9 °F 58.3 °F 30.2 in West 1 mph 2 mph 79 % 0 in
10:30 64.9 °F 58.3 °F 30.2 in WNW 2 mph 3 mph 79 % 0 in
11:04 70.7 °F 62.8 °F 30.2 in NE 1.2 mph 1.2 mph 76 % 0 in
11:09 71.6 °F 63.7 °F 30.2 in ESE 3.5 mph 3.5 mph 76 % 0 in
11:14 72 °F 63.1 °F 30.2 in NE 4.9 mph 4.9 mph 74 % 0 in
11:19 71.6 °F 63 °F 30.2 in East 2.4 mph 2.4 mph 74 % 0 in
11:24 72.3 °F 63.7 °F 30.2 in NNE 2.9 mph   74 % 0 in
11:29 72.3 °F 63.1 °F 30.2 in NNE 5.8 mph 5.8 mph 73 % 0 in
11:34 72.9 °F 63.7 °F 30.2 in East 2.3 mph 2.6 mph 73 % 0 in
11:39 73.8 °F 63.9 °F 30.2 in ENE 2.4 mph 2.4 mph 71 % 0 in
11:44 74.1 °F 64 °F 30.2 in SE 2.4 mph 2.4 mph 71 % 0 in
11:49 73.9 °F 63.5 °F 30.2 in ENE 3.5 mph 3.5 mph 70 % 0 in
11:54 73.8 °F 63 °F 30.2 in ESE 3.1 mph 3.3 mph 69 % 0 in
11:59 73 °F 61.9 °F 30.2 in ESE 3.5 mph 3.5 mph 68 % 0 in
12:04 72.7 °F 61.9 °F 30.2 in ENE 3.5 mph 3.5 mph 69 % 0 in
12:09 72.7 °F 61.5 °F 30.2 in SE 3.5 mph 3.5 mph 68 % 0 in
12:14 73.6 °F 61.9 °F 30.2 in SSE 3.5 mph 3.5 mph 67 % 0 in
12:19 75.4 °F 63.7 °F 30.2 in WSW 1.4 mph 2.2 mph 67 % 0 in
12:24 75.2 °F 62.6 °F 30.2 in East 4.6 mph 4.6 mph 65 % 0 in
12:25 75.2 °F 62.6 °F 30.2 in ENE 4.6 mph 4.6 mph 65 % 0 in
12:30 74.7 °F 62.4 °F 30.2 in South 2.3 mph 2.3 mph 66 % 0 in
12:35 75 °F 63 °F 30.2 in SSE 2.3 mph 2.3 mph 66 % 0 in
12:40 74.7 °F 62.1 °F 30.2 in South 2.4 mph 2.4 mph 65 % 0 in
12:45 73.9 °F 61.3 °F 30.2 in ESE 2.4 mph 2.4 mph 65 % 0 in
12:50 74.1 °F 61.5 °F 30.2 in SSE 4.6 mph 4.6 mph 65 % 0 in
12:55 74.1 °F 61.2 °F 30.2 in SSE 4.6 mph 4.6 mph 64 % 0 in
13:00 73.9 °F 61.3 °F 30.2 in NE 2.3 mph 2.3 mph 65 % 0 in
13:05 73.9 °F 61 °F 30.2 in ESE 3.5 mph 3.5 mph 64 % 0 in
13:10 74.3 °F 61.9 °F 30.2 in SW 2.3 mph 2.3 mph 65 % 0 in
13:15 74.8 °F 61.9 °F 30.2 in East 2.3 mph 2.3 mph 64 % 0 in
13:20 73.9 °F 61 °F 30.2 in SW 2.3 mph 2.3 mph 64 % 0 in
13:25 73.9 °F 61 °F 30.2 in SE 2.6 mph   64 % 0 in
13:30 73.6 °F 60.6 °F 30.2 in SSE 4.6 mph 4.6 mph 64 % 0 in
13:35 73.8 °F 61.3 °F 30.2 in South 3.8 mph 3.8 mph 65 % 0 in
13:40 73.9 °F 61.3 °F 30.2 in WSW 2.2 mph 2.2 mph 65 % 0 in
13:45 73.8 °F 60.8 °F 30.2 in WSW 3.5 mph 3.5 mph 64 % 0 in
13:50 74.3 °F 61.9 °F 30.2 in SSE 4.6 mph 4.6 mph 65 % 0 in
13:55 74.5 °F 61.9 °F 30.2 in SW 2.3 mph 2.3 mph 65 % 0 in
14:00 74.5 °F 61.5 °F 30.2 in SE 3.5 mph 3.5 mph 64 % 0 in
14:05 73.9 °F 60.1 °F 30.2 in South 4.6 mph 4.6 mph 62 % 0 in
14:10 73.9 °F 61 °F 30.2 in SW 3.5 mph 3.5 mph 64 % 0 in
14:15 73.9 °F 61 °F 30.2 in WSW 1.2 mph 1.2 mph 64 % 0 in
14:20 73.6 °F 61.2 °F 30.2 in SW 2.3 mph 2.3 mph 65 % 0 in
14:25 73.4 °F 61 °F 30.2 in SW 4.7 mph 4.7 mph 65 % 0 in
15:42 64.6 °F 58.3 °F 30.2 in NW 4.7 mph 4.7 mph 80 % 0 in
15:47 64.9 °F 58.6 °F 30.2 in ENE 2.4 mph 2.4 mph 80 % 0 in
15:52 64.8 °F 58.5 °F 30.2 in NE 3.5 mph 3.5 mph 80 % 0.16 in
15:57 65.1 °F 58.8 °F 30.2 in NNW 3.5 mph 3.5 mph 80 % 0.16 in
16:02 64.9 °F 58.6 °F 30.2 in NNE 3.5 mph 3.5 mph 80 % 0.16 in
16:07 65.1 °F 58.8 °F 30.2 in NE 2 mph 2 mph 80 % 0.16 in
16:12 64.9 °F 58.6 °F 30.2 in NE 3.5 mph 3.5 mph 80 % 0.16 in
16:17 65.3 °F 59.4 °F 30.2 in NE 1.2 mph   81 % 0.16 in
16:22 65.7 °F 59.4 °F 30.2 in NE 1.6 mph   80 % 0.16 in
16:27 65.8 °F 59.2 °F 30.2 in NNE 6.9 mph 6.9 mph 79 % 0.16 in
16:32 66 °F 59.4 °F 30.2 in ENE 4.6 mph 4.6 mph 79 % 0.16 in
16:37 65.7 °F 58.6 °F 30.2 in ENE 4.6 mph 4.6 mph 78 % 0.16 in
16:42 65.3 °F 58.3 °F 30.2 in NNE 5.8 mph 5.8 mph 78 % 0.16 in
16:47 65.3 °F 57.9 °F 30.2 in NE 5.8 mph 5.8 mph 77 % 0.16 in
16:52 65.3 °F 57.9 °F 30.2 in NNE 6.9 mph 6.9 mph 77 % 0 in
16:57 65.5 °F 58.1 °F 30.2 in NNE 5.8 mph 5.8 mph 77 % 0 in
17:02 65.7 °F 58.3 °F 30.2 in ENE 3.8 mph 3.8 mph 77 % 0 in
17:07 65.7 °F 58.3 °F 30.2 in NE 4.6 mph 4.6 mph 77 % 0 in
17:12 65.7 °F 57.9 °F 30.2 in ENE 5.4 mph 5.4 mph 76 % 0 in
17:17 66 °F 58.3 °F 30.2 in NE 4.6 mph 4.6 mph 76 % 0 in
17:22 66 °F 58.3 °F 30.2 in ENE 4.6 mph 4.6 mph 76 % 0 in
17:27 66.2 °F 57.7 °F 30.2 in NE 3.5 mph 3.5 mph 74 % 0 in
17:32 66.4 °F 57.7 °F 30.2 in Calm     74 % 0 in
17:37 66.4 °F 57.6 °F 30.2 in ENE 3.5 mph 3.5 mph 73 % 0 in
17:38 66.4 °F 57.6 °F 30.2 in ENE 3.5 mph 3.5 mph 73 % 0 in
17:43 66.7 °F 57.7 °F 30.2 in ENE 1.2 mph   73 % 0 in
17:48 66.9 °F 58.5 °F 30.2 in NE 1.4 mph   74 % 0 in
17:53 66.9 °F 58.5 °F 30.2 in North 1.2 mph   74 % 0 in
17:58 67.3 °F 58.6 °F 30.2 in North 1.2 mph   74 % 0 in
18:03 66.7 °F 57.7 °F 30.2 in NNE 2.3 mph 2.4 mph 73 % 0 in
18:08 66.6 °F 57.6 °F 30.2 in NE 1.6 mph 1.6 mph 73 % 0 in
18:13 66.4 °F 57 °F 30.2 in ENE 1.2 mph   72 % 0 in
18:18 66.4 °F 57 °F 30.2 in ENE 1.2 mph   72 % 0 in
18:23 66.4 °F 57.6 °F 30.2 in ENE 1.4 mph 1.4 mph 73 % 0 in
18:28 66.6 °F 57.6 °F 30.2 in Calm     73 % 0 in
18:33 66.4 °F 57 °F 30.2 in Calm     72 % 0 in
18:38 66.4 °F 57 °F 30.2 in ENE 1.4 mph 1.4 mph 72 % 0 in
18:43 66.4 °F 57 °F 30.2 in ENE 1.6 mph 1.6 mph 72 % 0 in
18:48 66.4 °F 57.6 °F 30.2 in Calm     73 % 0 in
18:53 66.4 °F 57.6 °F 30.2 in Calm     73 % 0 in
18:58 66.4 °F 57.6 °F 30.2 in Calm     73 % 0 in
19:03 66.4 °F 57.7 °F 30.2 in Calm     74 % 0 in
19:08 66.2 °F 57.7 °F 30.2 in ENE 1.2 mph 1.2 mph 74 % 0 in
19:13 66 °F 58.3 °F 30.2 in ENE 1.2 mph   76 % 0 in
19:18 65.8 °F 58.1 °F 30.2 in ENE 1.4 mph   76 % 0 in
19:23 65.8 °F 58.1 °F 30.2 in ENE 1.2 mph   76 % 0 in
19:28 65.7 °F 57.9 °F 30.2 in Calm     76 % 0 in
19:33 65.5 °F 57.7 °F 30.2 in Calm     76 % 0 in
19:38 65.3 °F 57.6 °F 30.2 in Calm     76 % 0 in
19:43 65.3 °F 57.6 °F 30.2 in ENE 1.6 mph 1.6 mph 76 % 0 in
19:48 65.1 °F 57.4 °F 30.2 in ENE 2.3 mph 2.3 mph 76 % 0 in
19:53 65.1 °F 57.7 °F 30.2 in ENE 1.2 mph   77 % 0 in
19:58 65.1 °F 57.7 °F 30.2 in ENE 1.2 mph   77 % 0 in
20:03 64.9 °F 57.6 °F 30.2 in ENE 1.4 mph   77 % 0 in
20:08 64.8 °F 57.4 °F 30.2 in NE 2.3 mph 2.3 mph 77 % 0 in
20:18 64.6 °F 57.2 °F 30.2 in NNE 1.2 mph   77 % 0 in
20:23 64.2 °F 57.2 °F 30.2 in NNE 3.5 mph 3.5 mph 78 % 0 in
20:28 64 °F 57 °F 30.2 in NNE 2.3 mph 2.3 mph 78 % 0 in
20:33 63.9 °F 56.8 °F 30.2 in NNE 3.5 mph 3.5 mph 78 % 0 in
20:38 63.9 °F 56.8 °F 30.2 in NNE 2.3 mph 2.3 mph 78 % 0 in
20:43 63.7 °F 56.7 °F 30.2 in Calm     78 % 0 in
20:48 63.7 °F 57 °F 30.2 in NNE 1.2 mph   79 % 0 in
20:53 63.7 °F 57 °F 30.2 in North 2.3 mph 2.3 mph 79 % 0 in
20:58 63.5 °F 56.8 °F 30.2 in NE 3.5 mph 3.5 mph 79 % 0 in
21:03 63.5 °F 56.8 °F 30.2 in NNE 2.3 mph 2.3 mph 79 % 0 in
21:08 63.5 °F 56.8 °F 30.2 in NNE 2.9 mph 2.9 mph 79 % 0 in
21:13 63.5 °F 56.8 °F 30.2 in NNE 2.4 mph 2.4 mph 79 % 0 in
21:18 63.5 °F 56.8 °F 30.2 in NNE 3.5 mph 3.5 mph 79 % 0 in
21:23 63.5 °F 56.8 °F 30.2 in NNW 3.5 mph 3.5 mph 79 % 0 in
21:28 63.5 °F 56.8 °F 30.2 in North 2.3 mph 2.3 mph 79 % 0 in
21:33 63.5 °F 56.8 °F 30.2 in NNW 2.3 mph   79 % 0 in
21:38 63.5 °F 56.8 °F 30.2 in NNW 2.3 mph   79 % 0 in
21:43 63.5 °F 56.8 °F 30.2 in NW 2.6 mph 2.6 mph 79 % 0 in
21:48 63.7 °F 57 °F 30.2 in NW 2.3 mph 2.3 mph 79 % 0 in
21:53 63.7 °F 57 °F 30.2 in NNW 2.3 mph 2.3 mph 79 % 0 in
21:58 63.5 °F 56.8 °F 30.2 in NW 3.5 mph 3.5 mph 79 % 0 in
22:03 63.5 °F 56.8 °F 30.2 in NW 2.3 mph   79 % 0 in
22:08 63.3 °F 56.7 °F 30.2 in NW 1.2 mph   79 % 0 in
22:13 63.3 °F 56.7 °F 30.2 in NW 2.3 mph 2.3 mph 79 % 0 in
22:18 63.3 °F 56.7 °F 30.2 in NW 2.4 mph 2.4 mph 79 % 0 in
22:23 63.1 °F 56.8 °F 30.2 in NW 1.6 mph   80 % 0 in
22:28 63.1 °F 56.8 °F 30.2 in NW 1.6 mph 1.6 mph 80 % 0 in
22:33 63.1 °F 56.8 °F 30.2 in NW 1.4 mph 1.4 mph 80 % 0 in
22:38 63.1 °F 56.8 °F 30.2 in NW 1.2 mph   80 % 0 in
22:43 63.1 °F 56.8 °F 30.2 in NW 2.3 mph 2.3 mph 80 % 0 in
22:48 63.1 °F 56.8 °F 30.2 in NW 2.3 mph 2.3 mph 80 % 0 in
22:53 63.3 °F 57 °F 30.2 in NW 1.2 mph 1.6 mph 80 % 0 in
22:58 63.3 °F 57.4 °F 30.2 in Calm     81 % 0 in
23:03 63.3 °F 57.4 °F 30.2 in NW 2.3 mph   81 % 0 in
23:08 63.3 °F 57.4 °F 30.2 in NW 1.4 mph 1.4 mph 81 % 0 in
23:13 63.3 °F 57.4 °F 30.2 in Calm     81 % 0 in
23:18 63.3 °F 57.4 °F 30.2 in Calm     81 % 0 in
23:23 63.3 °F 57.4 °F 30.2 in NW 1.2 mph 1.2 mph 81 % 0 in
23:28 63.3 °F 57.4 °F 30.2 in Calm     81 % 0 in
23:33 63.3 °F 57.4 °F 30.2 in NW 1.2 mph   81 % 0 in
23:38 63.1 °F 57.6 °F 30.2 in Calm     82 % 0 in
23:43 63.1 °F 57.6 °F 30.2 in NW 1.2 mph 1.2 mph 82 % 0 in
23:48 63 °F 57.4 °F 30.2 in Calm     82 % 0 in
23:53 63 °F 57.4 °F 30.2 in NW 1.2 mph   82 % 0 in
23:58 62.8 °F 57.2 °F 30.2 in Calm     82 % 0 in
Meteo Sesrovires
Elogis d' Weather Underground - 3.5 mb

Guio original per  Jim McMurry - jmcmurry@mwt.net Adaptat per a la plantilla per  Wim van der Kuil - Leuven-Template.eu

Trobareu la nostra informacio del temps tambe a:

Weather Underground

AWEKAS